SBCY/CGB METAR and TAF weather

Enter ICAO airport designator
Station Type Date Time Source
SBCY METAR 2019/04/25 08:00 UTC NOAA

SBCY 250800Z 19002KT CAVOK 26/24 Q1014


Station Type Date Time Source
SBCY Decoded METAR 2019/04/25 08:00 UTC NOAA

Cuiaba Aeroporto , Brazil (SBCY) 15-39S 056-06W 182M
Apr 25, 2019 - 04:00 AM EDT / 2019.04.25 0800 UTC
Wind: from the S (190 degrees) at 2 MPH (2 KT):0
Visibility: greater than 7 mile(s):0
Temperature: 78 F (26 C)
Dew Point: 75 F (24 C)
Relative Humidity: 88%
Pressure (altimeter): 29.94 in. Hg (1014 hPa)
ob: SBCY 250800Z 19002KT CAVOK 26/24 Q1014
cycle: 8

Station Type Date Time Source
SBCY TAF 2019/04/25 06:12 UTC NOAA

TAF TAF SBCY 250400Z 2506/2606 32005KT CAVOK TN27/2508Z TX35/2517Z
BECMG 2514/2516 9999 SCT020
BECMG 2516/2518 8000 SCT020 FEW025TCU PROB30 2518/ 2520 TS SCT020 FEW025CB
BECMG 2520/2522 05005KT 9999 SCT020
BECMG 2600/26 02 32003KT CAVOK
RMK PFD

Example: see airport list